Time;durP1;ratioP1;P1;durP2;ratioP2;P2;SDS_P1;SDS_P2;PMS_P1;PMS_P2;Temp;Humidity;BMP_temperature;BMP_pressure;BME280_temperature;BME280_humidity;BME280_pressure;Samples;Min_cycle;Max_cycle;Signal;HPM_P1;HPM_P2
2022/09/19 00:00:26;;;;;;;;;;;;;;;25.09;42.72;100635.99;104466;1309;61276;-84
2022/09/19 00:02:51;;;;;;;;;;;;;;;25.09;42.62;100635.22;104396;1311;61398;-83
2022/09/19 00:05:17;;;;;;;;;;;;;;;25.08;42.61;100632.23;104406;1311;61291;-83
2022/09/19 00:07:43;;;;;;;;;;;;;;;25.09;42.66;100631.70;104559;1308;61262;-83
2022/09/19 00:10:08;;;;;;;;;;;;;;;25.08;42.71;100630.64;104523;1310;61128;-83
2022/09/19 00:12:34;;;;;;;;;;;;;;;25.08;42.71;100627.95;104455;1308;61379;-86
2022/09/19 00:15:00;;;;;;;;;;;;;;;25.08;42.61;100633.52;104411;1311;61771;-84
2022/09/19 00:17:25;;;;;;;;;;;;;;;25.08;42.55;100635.19;104385;1312;61270;-83
2022/09/19 00:19:51;;;;;;;;;;;;;;;25.07;42.55;100633.41;104461;1309;61398;-85
2022/09/19 00:22:17;;;;;;;;;;;;;;;25.08;42.58;100630.88;104446;1310;61272;-83
2022/09/19 00:24:45;;;;;;;;;;;;;;;25.08;42.60;100626.74;104418;1309;61138;-83
2022/09/19 00:27:11;;;;;;;;;;;;;;;25.07;42.57;100624.60;104398;1311;72778;-84
2022/09/19 00:29:37;;;;;;;;;;;;;;;25.07;42.50;100621.19;104410;1311;59379;-83
2022/09/19 00:32:06;;;;;;;;;;;;;;;25.07;42.61;100617.27;104414;1311;61406;-86
2022/09/19 00:34:32;;;;;;;;;;;;;;;25.06;42.56;100617.48;104445;1310;61464;-84
2022/09/19 00:36:58;;;;;;;;;;;;;;;25.07;42.59;100619.47;104508;1309;60907;-83
2022/09/19 00:39:26;;;;;;;;;;;;;;;25.07;42.58;100624.66;104530;1308;61644;-83
2022/09/19 00:41:51;;;;;;;;;;;;;;;25.06;42.49;100628.89;104501;1310;61320;-84
2022/09/19 00:44:23;;;;;;;;;;;;;;;25.06;42.61;100628.31;104510;1309;61294;-83
2022/09/19 00:46:53;;;;;;;;;;;;;;;25.06;42.64;100632.66;104506;1309;73875;-84
2022/09/19 00:49:20;;;;;;;;;;;;;;;25.06;42.53;100634.84;104438;1308;74997;-83
2022/09/19 00:51:47;;;;;;;;;;;;;;;25.06;42.65;100639.36;104412;1310;61184;-84
2022/09/19 00:54:20;;;;;;;;;;;;;;;25.05;42.50;100634.86;104318;1309;61178;-84
2022/09/19 00:56:47;;;;;;;;;;;;;;;25.05;42.64;100638.29;104422;1311;73745;-83
2022/09/19 00:59:13;;;;;;;;;;;;;;;25.05;42.52;100643.88;104524;1309;74689;-85
2022/09/19 01:01:39;;;;;;;;;;;;;;;25.05;42.60;100648.23;104435;1311;61226;-84
2022/09/19 01:04:15;;;;;;;;;;;;;;;25.05;42.54;100649.13;104444;1310;61318;-83
2022/09/19 01:06:47;;;;;;;;;;;;;;;25.05;42.58;100648.24;104499;1309;73776;-83
2022/09/19 01:09:17;;;;;;;;;;;;;;;25.05;42.50;100648.96;104451;1309;75757;-84
2022/09/19 01:15:03;;;;;;;;;;;;;;;25.05;42.67;100645.38;104209;1314;61457;-84
2022/09/19 01:17:32;;;;;;;;;;;;;;;25.04;42.50;100651.35;104199;1314;71650;-85
2022/09/19 01:19:58;;;;;;;;;;;;;;;25.04;42.56;100646.66;104127;1316;75267;-83
2022/09/19 01:22:45;;;;;;;;;;;;;;;25.04;42.51;100654.60;103966;1316;61405;-83
2022/09/19 01:25:11;;;;;;;;;;;;;;;25.03;42.47;100660.96;104191;1316;61177;-83
2022/09/19 01:27:55;;;;;;;;;;;;;;;25.04;42.57;100667.80;103938;1316;61410;-84
2022/09/19 01:30:20;;;;;;;;;;;;;;;25.03;42.60;100661.13;104150;1315;75921;-83
2022/09/19 01:32:52;;;;;;;;;;;;;;;25.04;42.59;100658.27;104108;1317;61335;-83
2022/09/19 01:35:20;;;;;;;;;;;;;;;25.03;42.62;100659.73;104173;1316;61707;-84
2022/09/19 01:37:47;;;;;;;;;;;;;;;25.03;42.62;100660.83;104123;1316;73246;-84
2022/09/19 01:40:13;;;;;;;;;;;;;;;25.03;42.47;100662.13;104118;1316;75178;-83
2022/09/19 01:42:54;;;;;;;;;;;;;;;25.03;42.61;100663.38;104114;1315;61791;-82
2022/09/19 01:45:23;;;;;;;;;;;;;;;25.02;42.53;100663.98;104135;1316;61519;-84
2022/09/19 01:47:57;;;;;;;;;;;;;;;25.02;42.49;100663.44;104173;1316;73786;-84
2022/09/19 01:50:34;;;;;;;;;;;;;;;25.02;42.63;100671.02;104189;1316;75792;-83
2022/09/19 01:53:12;;;;;;;;;;;;;;;25.02;42.60;100666.20;104391;1311;62462;-81
2022/09/19 01:55:40;;;;;;;;;;;;;;;25.02;42.56;100665.09;104401;1311;61146;-84
2022/09/19 01:58:09;;;;;;;;;;;;;;;25.02;42.56;100664.57;104384;1311;74875;-83
2022/09/19 02:00:37;;;;;;;;;;;;;;;25.01;42.55;100661.20;104453;1311;76623;-84
2022/09/19 02:03:33;;;;;;;;;;;;;;;25.01;42.55;100661.39;104412;1311;61167;-83
2022/09/19 02:06:18;;;;;;;;;;;;;;;25.01;42.53;100666.98;104223;1311;61202;-84
2022/09/19 02:09:01;;;;;;;;;;;;;;;25.01;42.50;100669.88;104408;1311;72803;-82
2022/09/19 02:11:27;;;;;;;;;;;;;;;25.01;42.47;100670.59;104386;1311;75734;-82
2022/09/19 02:14:16;;;;;;;;;;;;;;;25.01;42.50;100674.35;104443;1311;61446;-83
2022/09/19 02:16:51;;;;;;;;;;;;;;;25.01;42.48;100670.79;104476;1311;61586;-84
2022/09/19 02:19:17;;;;;;;;;;;;;;;25.01;42.55;100674.20;104369;1311;73627;-83
2022/09/19 02:21:48;;;;;;;;;;;;;;;25.00;42.48;100669.37;104469;1310;61303;-83
2022/09/19 02:24:16;;;;;;;;;;;;;;;25.00;42.56;100673.17;104369;1311;61201;-87
2022/09/19 02:26:44;;;;;;;;;;;;;;;25.00;42.44;100676.44;104462;1311;61287;-83
2022/09/19 02:29:12;;;;;;;;;;;;;;;25.00;42.46;100676.59;104381;1311;72900;-84
2022/09/19 02:31:39;;;;;;;;;;;;;;;25.00;42.35;100679.70;104465;1311;75616;-82
2022/09/19 02:34:05;;;;;;;;;;;;;;;24.99;42.57;100679.72;104393;1311;61301;-85
2022/09/19 02:36:41;;;;;;;;;;;;;;;24.99;42.49;100680.29;104396;1311;61308;-83
2022/09/19 02:39:25;;;;;;;;;;;;;;;24.99;42.45;100682.45;104432;1311;73728;-83
2022/09/19 02:42:10;;;;;;;;;;;;;;;24.99;42.48;100676.90;104461;1311;75071;-84
2022/09/19 02:44:39;;;;;;;;;;;;;;;24.98;42.46;100677.27;104398;1311;61311;-84
2022/09/19 02:47:08;;;;;;;;;;;;;;;24.98;42.46;100679.45;104482;1311;61196;-84
2022/09/19 02:49:42;;;;;;;;;;;;;;;24.98;42.41;100679.14;104458;1311;73171;-83
2022/09/19 02:52:13;;;;;;;;;;;;;;;24.98;42.40;100675.36;104387;1311;75892;-83
2022/09/19 02:54:42;;;;;;;;;;;;;;;24.97;42.34;100676.67;104400;1311;61323;-83
2022/09/19 02:57:09;;;;;;;;;;;;;;;24.98;42.42;100678.60;104478;1311;61393;-81
2022/09/19 02:59:36;;;;;;;;;;;;;;;24.98;42.42;100679.71;104357;1311;72807;-84
2022/09/19 03:02:03;;;;;;;;;;;;;;;24.97;42.54;100685.36;104409;1311;74778;-83
2022/09/19 03:04:30;;;;;;;;;;;;;;;24.97;42.40;100684.83;104468;1311;61301;-83
2022/09/19 03:07:02;;;;;;;;;;;;;;;24.97;42.33;100684.09;104421;1311;61158;-84
2022/09/19 03:09:28;;;;;;;;;;;;;;;24.97;42.41;100681.95;104367;1311;73301;-85
2022/09/19 03:11:57;;;;;;;;;;;;;;;24.96;42.43;100683.98;104407;1310;61174;-82
2022/09/19 03:14:22;;;;;;;;;;;;;;;24.96;42.41;100679.66;104469;1311;61402;-83
2022/09/19 03:16:48;;;;;;;;;;;;;;;24.96;42.44;100680.80;104405;1311;61333;-85
2022/09/19 03:19:13;;;;;;;;;;;;;;;24.96;42.53;100675.57;104379;1311;61316;-84
2022/09/19 03:21:41;;;;;;;;;;;;;;;24.95;42.38;100676.84;104380;1311;61261;-85
2022/09/19 03:24:06;;;;;;;;;;;;;;;24.95;42.39;100680.82;104406;1311;61163;-83
2022/09/19 03:26:34;;;;;;;;;;;;;;;24.95;42.53;100679.23;104415;1311;61813;-84
2022/09/19 03:29:00;;;;;;;;;;;;;;;24.95;42.47;100680.16;104381;1311;74201;-84
2022/09/19 03:31:26;;;;;;;;;;;;;;;24.94;42.48;100679.64;104458;1311;61345;-83
2022/09/19 03:33:51;;;;;;;;;;;;;;;24.94;42.55;100681.60;104387;1311;61358;-84
2022/09/19 03:36:18;;;;;;;;;;;;;;;24.94;42.38;100684.13;104508;1310;61371;-83
2022/09/19 03:38:46;;;;;;;;;;;;;;;24.93;42.31;100683.98;104480;1311;61179;-83
2022/09/19 03:41:12;;;;;;;;;;;;;;;24.93;42.40;100687.06;104439;1311;72943;-85
2022/09/19 03:43:38;;;;;;;;;;;;;;;24.93;42.38;100690.02;104287;1311;61423;-84
2022/09/19 03:46:06;;;;;;;;;;;;;;;24.92;42.41;100697.81;104490;1311;61300;-85
2022/09/19 03:48:32;;;;;;;;;;;;;;;24.91;42.38;100705.10;104377;1311;61177;-86
2022/09/19 03:51:00;;;;;;;;;;;;;;;24.90;42.34;100705.33;104403;1311;61366;-85
2022/09/19 03:53:27;;;;;;;;;;;;;;;24.90;42.38;100707.69;104400;1311;73808;-84
2022/09/19 03:55:56;;;;;;;;;;;;;;;24.90;42.35;100711.14;104466;1311;61299;-84
2022/09/19 03:58:23;;;;;;;;;;;;;;;24.89;42.34;100708.17;104382;1309;61366;-85
2022/09/19 04:00:49;;;;;;;;;;;;;;;24.88;42.35;100708.10;104468;1311;73873;-84
2022/09/19 04:03:15;;;;;;;;;;;;;;;24.86;42.28;100713.27;104463;1311;59592;-85
2022/09/19 04:05:42;;;;;;;;;;;;;;;24.85;42.20;100717.17;104490;1311;61377;-85
2022/09/19 04:08:08;;;;;;;;;;;;;;;24.83;42.20;100721.30;104424;1311;61325;-85
2022/09/19 04:10:33;;;;;;;;;;;;;;;24.81;42.20;100719.17;104378;1311;61220;-85
2022/09/19 04:12:59;;;;;;;;;;;;;;;24.79;42.14;100717.73;104366;1311;61492;-86
2022/09/19 04:15:24;;;;;;;;;;;;;;;24.75;42.09;100713.33;104473;1311;61299;-85
2022/09/19 04:17:50;;;;;;;;;;;;;;;24.73;41.92;100716.06;104388;1311;61444;-87
2022/09/19 04:20:15;;;;;;;;;;;;;;;24.71;41.92;100718.02;104388;1311;61305;-84
2022/09/19 04:22:41;;;;;;;;;;;;;;;24.69;41.98;100716.66;104401;1311;61394;-85
2022/09/19 04:25:10;;;;;;;;;;;;;;;24.67;41.75;100720.59;104127;1311;61318;-81
2022/09/19 04:27:37;;;;;;;;;;;;;;;24.64;41.73;100717.39;104308;1310;61384;-81
2022/09/19 04:30:03;;;;;;;;;;;;;;;24.62;41.56;100722.98;104580;1310;61327;-84
2022/09/19 04:32:28;;;;;;;;;;;;;;;24.60;41.46;100722.19;104268;1310;61337;-84
2022/09/19 04:34:55;;;;;;;;;;;;;;;24.58;41.36;100719.29;104293;1310;61289;-83
2022/09/19 04:37:22;;;;;;;;;;;;;;;24.57;41.31;100721.35;104337;1311;61381;-84
2022/09/19 04:39:48;;;;;;;;;;;;;;;24.56;41.15;100724.17;104397;1311;61161;-85
2022/09/19 04:42:16;;;;;;;;;;;;;;;24.55;40.90;100731.84;104275;1310;61178;-84
2022/09/19 04:44:42;;;;;;;;;;;;;;;24.54;40.81;100734.80;104374;1311;74645;-83
2022/09/19 04:47:10;;;;;;;;;;;;;;;24.52;40.52;100732.48;104295;1311;61407;-83
2022/09/19 04:49:39;;;;;;;;;;;;;;;24.48;40.32;100737.67;104283;1311;62399;-83
2022/09/19 04:52:12;;;;;;;;;;;;;;;24.44;40.08;100739.41;104119;1309;73283;-85
2022/09/19 04:54:38;;;;;;;;;;;;;;;24.40;39.84;100742.60;103850;1309;74908;-82
2022/09/19 04:57:05;;;;;;;;;;;;;;;24.36;39.56;100746.39;103549;1311;61289;-82
2022/09/19 04:59:33;;;;;;;;;;;;;;;24.33;39.49;100751.73;103619;1311;63217;-83
2022/09/19 05:01:59;;;;;;;;;;;;;;;24.28;39.32;100749.77;104096;1309;71632;-84
2022/09/19 05:04:25;;;;;;;;;;;;;;;24.22;39.11;100749.20;104219;1309;61167;-82
2022/09/19 05:06:51;;;;;;;;;;;;;;;24.11;38.84;100745.98;104203;1309;59845;-84
2022/09/19 05:09:17;;;;;;;;;;;;;;;24.05;38.58;100747.25;104172;1308;61458;-83
2022/09/19 05:11:46;;;;;;;;;;;;;;;24.04;38.62;100745.20;104201;1309;61363;-83
2022/09/19 05:14:13;;;;;;;;;;;;;;;24.06;38.49;100738.89;104355;1309;74307;-83
2022/09/19 05:16:39;;;;;;;;;;;;;;;24.07;38.52;100743.80;104309;1309;61226;-85
2022/09/19 05:19:05;;;;;;;;;;;;;;;24.09;38.49;100743.32;104169;1310;61226;-84
2022/09/19 05:21:32;;;;;;;;;;;;;;;24.08;38.41;100747.48;104226;1311;80660;-84
2022/09/19 05:24:00;;;;;;;;;;;;;;;24.08;38.23;100743.91;104138;1311;61273;-83
2022/09/19 05:26:25;;;;;;;;;;;;;;;24.09;38.12;100743.70;104256;1308;60270;-84
2022/09/19 05:28:51;;;;;;;;;;;;;;;24.08;37.93;100744.63;104218;1311;61145;-84
2022/09/19 05:31:18;;;;;;;;;;;;;;;24.07;37.67;100742.39;104251;1311;61276;-83
2022/09/19 05:33:43;;;;;;;;;;;;;;;24.05;37.63;100744.19;104247;1309;60726;-84
2022/09/19 05:36:09;;;;;;;;;;;;;;;24.04;37.50;100743.89;104216;1311;61231;-83
2022/09/19 05:38:36;;;;;;;;;;;;;;;24.04;37.46;100742.82;104157;1311;61433;-84
2022/09/19 05:41:02;;;;;;;;;;;;;;;24.04;37.37;100743.02;104191;1310;61266;-83
2022/09/19 05:43:27;;;;;;;;;;;;;;;24.05;37.27;100741.34;104372;1309;62171;-84
2022/09/19 05:45:53;;;;;;;;;;;;;;;24.04;37.25;100739.80;104260;1308;74682;-83
2022/09/19 05:48:18;;;;;;;;;;;;;;;24.03;37.17;100741.14;104235;1309;61525;-83
2022/09/19 05:50:44;;;;;;;;;;;;;;;24.02;37.06;100745.70;104206;1311;60046;-83
2022/09/19 05:56:04;;;;;;;;;;;;;;;23.95;36.75;100745.39;104308;1310;75122;-83
2022/09/19 05:58:35;;;;;;;;;;;;;;;23.93;36.71;100750.60;104343;1309;60957;-83
2022/09/19 06:01:07;;;;;;;;;;;;;;;23.95;36.90;100752.96;104122;1308;61434;-81
2022/09/19 06:03:34;;;;;;;;;;;;;;;23.92;36.76;100753.35;103829;1311;72931;-84
2022/09/19 06:05:59;;;;;;;;;;;;;;;23.81;36.57;100760.70;104322;1309;61160;-83
2022/09/19 06:08:25;;;;;;;;;;;;;;;23.77;36.66;100761.23;104342;1310;61300;-82
2022/09/19 06:10:50;;;;;;;;;;;;;;;23.81;36.58;100760.02;104351;1310;60562;-83
2022/09/19 06:13:16;;;;;;;;;;;;;;;23.82;36.58;100756.86;104352;1308;59888;-82
2022/09/19 06:15:41;;;;;;;;;;;;;;;23.86;36.64;100757.63;104373;1309;62133;-83
2022/09/19 06:18:09;;;;;;;;;;;;;;;23.91;36.63;100752.40;104217;1310;74616;-83
2022/09/19 06:20:36;;;;;;;;;;;;;;;23.94;36.75;100754.79;105130;1308;61085;-83
2022/09/19 06:23:02;;;;;;;;;;;;;;;23.98;36.66;100752.90;105080;1310;60408;-83
2022/09/19 06:25:30;;;;;;;;;;;;;;;24.01;36.66;100754.95;105086;1309;59528;-83
2022/09/19 06:27:56;;;;;;;;;;;;;;;24.04;36.58;100760.59;105043;1310;75354;-83
2022/09/19 06:30:23;;;;;;;;;;;;;;;24.06;36.70;100762.79;104920;1310;61531;-83
2022/09/19 06:32:50;;;;;;;;;;;;;;;24.08;36.55;100764.27;104244;1308;61283;-82
2022/09/19 06:35:16;;;;;;;;;;;;;;;24.10;36.38;100767.37;104257;1309;72907;-82
2022/09/19 06:37:42;;;;;;;;;;;;;;;24.10;36.28;100765.35;104198;1311;61466;-83
2022/09/19 06:40:08;;;;;;;;;;;;;;;24.09;36.07;100770.08;104266;1311;59556;-84
2022/09/19 06:42:33;;;;;;;;;;;;;;;24.08;36.08;100767.98;104324;1311;61256;-83
2022/09/19 06:44:59;;;;;;;;;;;;;;;24.09;35.98;100766.45;104252;1311;61395;-85
2022/09/19 06:47:24;;;;;;;;;;;;;;;24.10;35.91;100769.27;104346;1311;61336;-84
2022/09/19 06:49:50;;;;;;;;;;;;;;;24.09;35.80;100775.50;104125;1311;61366;-84
2022/09/19 06:52:15;;;;;;;;;;;;;;;24.08;35.76;100776.27;104266;1310;61438;-85
2022/09/19 06:54:41;;;;;;;;;;;;;;;24.00;35.47;100782.92;103592;1311;61426;-83
2022/09/19 06:57:07;;;;;;;;;;;;;;;23.90;35.44;100776.73;103872;1309;59934;-83
2022/09/19 06:59:32;;;;;;;;;;;;;;;23.83;35.39;100781.05;103711;1309;61437;-83
2022/09/19 07:01:58;;;;;;;;;;;;;;;23.81;35.26;100788.74;104113;1311;74971;-82
2022/09/19 07:04:23;;;;;;;;;;;;;;;23.78;35.21;100789.39;104168;1311;61458;-83
2022/09/19 07:06:49;;;;;;;;;;;;;;;23.72;35.18;100788.23;104411;1309;60598;-84
2022/09/19 07:09:14;;;;;;;;;;;;;;;23.69;35.12;100785.23;104302;1311;59401;-82
2022/09/19 07:11:40;;;;;;;;;;;;;;;23.72;35.09;100789.19;104106;1308;61325;-82
2022/09/19 07:14:05;;;;;;;;;;;;;;;23.74;35.11;100790.41;104209;1311;74945;-82
2022/09/19 07:16:31;;;;;;;;;;;;;;;23.76;35.01;100791.34;104361;1311;60189;-84
2022/09/19 07:18:56;;;;;;;;;;;;;;;23.76;34.88;100788.65;104355;1308;61333;-84
2022/09/19 07:21:22;;;;;;;;;;;;;;;23.72;34.84;100796.48;104460;1308;60039;-83
2022/09/19 07:23:47;;;;;;;;;;;;;;;23.71;34.71;100796.96;104324;1311;61448;-84
2022/09/19 07:26:13;;;;;;;;;;;;;;;23.69;34.64;100791.74;104320;1308;73838;-84
2022/09/19 07:28:39;;;;;;;;;;;;;;;23.67;34.41;100792.98;104381;1309;61145;-84
2022/09/19 07:31:05;;;;;;;;;;;;;;;23.67;34.33;100789.77;104359;1308;61304;-83
2022/09/19 07:33:30;;;;;;;;;;;;;;;23.64;34.22;100793.40;104281;1308;61410;-84
2022/09/19 07:35:56;;;;;;;;;;;;;;;23.64;34.12;100794.10;104436;1309;61382;-83
2022/09/19 07:38:22;;;;;;;;;;;;;;;23.64;34.08;100796.40;104258;1309;60677;-82
2022/09/19 07:40:48;;;;;;;;;;;;;;;23.64;33.98;100793.06;104465;1308;61297;-84
2022/09/19 07:43:14;;;;;;;;;;;;;;;23.60;33.89;100790.65;104307;1309;63093;-84
2022/09/19 07:45:41;;;;;;;;;;;;;;;23.57;33.79;100792.29;104224;1308;61304;-83
2022/09/19 07:48:07;;;;;;;;;;;;;;;23.54;33.58;100792.95;104236;1308;61377;-83
2022/09/19 07:50:34;;;;;;;;;;;;;;;23.52;33.51;100790.79;104198;1308;61394;-83
2022/09/19 07:53:01;;;;;;;;;;;;;;;23.48;33.52;100795.96;104283;1309;61280;-83
2022/09/19 07:55:26;;;;;;;;;;;;;;;23.48;33.55;100799.16;104311;1308;61265;-82
2022/09/19 07:57:55;;;;;;;;;;;;;;;23.48;33.55;100797.44;104225;1311;61330;-83
2022/09/19 08:00:22;;;;;;;;;;;;;;;23.49;33.51;100798.06;104400;1308;61149;-83
2022/09/19 08:03:01;;;;;;;;;;;;;;;23.45;33.46;100798.69;104324;1309;61384;-83
2022/09/19 08:05:27;;;;;;;;;;;;;;;23.37;33.36;100797.23;104416;1306;72848;-83
2022/09/19 08:07:54;;;;;;;;;;;;;;;23.38;33.49;100792.64;104368;1309;75185;-83
2022/09/19 08:10:21;;;;;;;;;;;;;;;23.36;33.43;100788.30;104490;1308;59553;-81
2022/09/19 08:12:47;;;;;;;;;;;;;;;23.33;33.34;100785.17;104400;1308;59586;-82
2022/09/19 08:15:15;;;;;;;;;;;;;;;23.35;33.41;100779.74;104332;1308;59720;-82
2022/09/19 08:18:01;;;;;;;;;;;;;;;23.39;33.45;100776.23;104255;1308;74864;-82
2022/09/19 08:20:28;;;;;;;;;;;;;;;23.40;33.31;100781.18;104381;1308;59474;-82
2022/09/19 08:22:56;;;;;;;;;;;;;;;23.42;33.32;100780.61;104283;1308;61336;-82
2022/09/19 08:25:22;;;;;;;;;;;;;;;23.43;33.18;100772.80;104265;1309;73475;-83
2022/09/19 08:27:48;;;;;;;;;;;;;;;23.44;33.14;100769.50;104311;1308;75695;-84
2022/09/19 08:30:13;;;;;;;;;;;;;;;23.44;33.06;100763.74;104292;1310;61379;-82
2022/09/19 08:32:39;;;;;;;;;;;;;;;23.44;32.77;100758.04;104247;1308;61233;-83
2022/09/19 08:35:07;;;;;;;;;;;;;;;23.46;32.88;100756.27;104258;1311;61281;-83
2022/09/19 08:37:32;;;;;;;;;;;;;;;23.49;32.93;100751.70;104289;1308;61276;-82
2022/09/19 08:40:16;;;;;;;;;;;;;;;23.51;32.76;100743.64;104272;1309;61497;-82
2022/09/19 08:42:54;;;;;;;;;;;;;;;23.54;32.90;100737.28;104239;1309;61273;-84
2022/09/19 08:45:36;;;;;;;;;;;;;;;23.51;32.83;100738.04;104207;1308;72857;-83
2022/09/19 08:48:03;;;;;;;;;;;;;;;23.51;32.84;100738.77;104512;1309;74891;-83
2022/09/19 08:50:30;;;;;;;;;;;;;;;23.53;32.70;100734.70;104186;1310;60340;-84
2022/09/19 08:52:57;;;;;;;;;;;;;;;23.55;32.74;100731.43;104221;1308;62103;-82
2022/09/19 08:55:25;;;;;;;;;;;;;;;23.56;32.71;100727.23;104204;1309;72911;-83
2022/09/19 08:57:54;;;;;;;;;;;;;;;23.57;32.69;100726.39;104274;1308;75759;-83
2022/09/19 09:00:21;;;;;;;;;;;;;;;23.59;32.65;100720.50;104243;1308;61402;-84
2022/09/19 09:02:48;;;;;;;;;;;;;;;23.55;32.53;100715.48;104376;1308;59728;-83
2022/09/19 09:05:14;;;;;;;;;;;;;;;23.49;32.54;100711.48;104344;1308;73864;-82
2022/09/19 09:07:52;;;;;;;;;;;;;;;23.50;32.60;100710.48;104292;1309;61396;-82
2022/09/19 09:10:24;;;;;;;;;;;;;;;23.56;32.69;100710.30;104187;1308;59904;-84
2022/09/19 09:13:03;;;;;;;;;;;;;;;23.61;32.70;100711.15;104249;1308;62525;-83
2022/09/19 09:15:32;;;;;;;;;;;;;;;23.68;32.80;100706.48;104401;1308;74124;-82
2022/09/19 09:18:08;;;;;;;;;;;;;;;23.70;32.69;100707.75;105142;1308;75769;-83
2022/09/19 09:20:51;;;;;;;;;;;;;;;23.70;32.64;100711.11;105253;1308;59374;-83
2022/09/19 09:23:16;;;;;;;;;;;;;;;23.71;32.67;100706.02;105136;1309;60419;-83
2022/09/19 09:25:44;;;;;;;;;;;;;;;23.73;32.62;100707.50;105159;1308;59202;-83
2022/09/19 09:28:14;;;;;;;;;;;;;;;23.75;32.54;100710.58;105156;1307;74741;-84
2022/09/19 09:30:40;;;;;;;;;;;;;;;23.76;32.67;100711.19;105273;1307;60591;-83
2022/09/19 09:33:06;;;;;;;;;;;;;;;23.77;32.68;100703.73;104990;1308;59885;-84
2022/09/19 09:35:39;;;;;;;;;;;;;;;23.80;32.64;100702.77;105236;1306;59097;-83
2022/09/19 09:38:10;;;;;;;;;;;;;;;23.82;32.71;100698.46;105067;1308;74811;-83
2022/09/19 09:43:30;;;;;;;;;;;;;;;23.77;32.66;100693.80;104361;1306;61100;-83
2022/09/19 09:45:55;;;;;;;;;;;;;;;23.79;32.82;100696.54;104344;1309;74452;-83
2022/09/19 09:48:26;;;;;;;;;;;;;;;23.82;32.84;100696.12;104325;1308;61288;-82
2022/09/19 09:51:07;;;;;;;;;;;;;;;23.85;32.79;100695.65;104477;1306;61137;-82
2022/09/19 09:53:46;;;;;;;;;;;;;;;23.89;32.80;100694.14;104343;1308;61283;-83
2022/09/19 09:56:17;;;;;;;;;;;;;;;23.89;32.75;100688.16;104325;1308;73024;-83
2022/09/19 09:58:54;;;;;;;;;;;;;;;23.87;32.51;100683.33;104248;1309;75854;-81
2022/09/19 10:04:33;;;;;;;;;;;;;;;23.79;32.56;100676.95;104641;1307;59682;-84
2022/09/19 10:07:17;;;;;;;;;;;;;;;23.78;32.40;100667.54;105195;1306;72977;-84
2022/09/19 10:09:45;;;;;;;;;;;;;;;23.76;32.41;100672.52;105236;1306;74792;-83
2022/09/19 10:12:15;;;;;;;;;;;;;;;23.77;32.39;100673.34;104863;1308;59359;-84
2022/09/19 10:14:40;;;;;;;;;;;;;;;23.79;32.49;100667.83;104329;1306;61107;-83
2022/09/19 10:17:06;;;;;;;;;;;;;;;23.82;32.41;100662.20;104356;1309;59651;-83
2022/09/19 10:19:48;;;;;;;;;;;;;;;23.86;32.38;100656.98;104481;1307;59620;-81
2022/09/19 10:22:14;;;;;;;;;;;;;;;23.90;32.36;100654.85;104411;1308;61123;-82
2022/09/19 10:24:50;;;;;;;;;;;;;;;23.93;32.48;100655.67;104849;1306;60556;-83
2022/09/19 10:27:23;;;;;;;;;;;;;;;23.97;32.23;100661.65;104295;1308;73963;-83
2022/09/19 10:29:59;;;;;;;;;;;;;;;23.91;32.07;100664.25;104174;1309;75933;-83
2022/09/19 10:32:25;;;;;;;;;;;;;;;23.89;32.04;100655.30;104413;1306;60744;-83
2022/09/19 10:34:51;;;;;;;;;;;;;;;23.92;32.03;100656.16;104392;1308;61284;-82
2022/09/19 10:37:18;;;;;;;;;;;;;;;23.94;32.09;100650.92;104441;1309;61311;-83
2022/09/19 10:39:46;;;;;;;;;;;;;;;23.95;31.90;100649.98;104295;1307;59825;-83
2022/09/19 10:42:41;;;;;;;;;;;;;;;23.95;31.92;100645.64;104301;1308;61339;-83
2022/09/19 10:45:28;;;;;;;;;;;;;;;23.96;31.76;100636.61;103848;1314;61290;-83
2022/09/19 10:47:55;;;;;;;;;;;;;;;23.92;31.66;100637.08;103842;1314;71992;-83
2022/09/19 10:50:21;;;;;;;;;;;;;;;23.93;31.69;100635.58;103788;1314;74801;-83
2022/09/19 10:52:47;;;;;;;;;;;;;;;23.94;31.71;100629.77;103853;1315;62341;-82
2022/09/19 10:55:13;;;;;;;;;;;;;;;23.92;31.57;100628.80;103142;1317;61522;-81
2022/09/19 10:57:50;;;;;;;;;;;;;;;23.89;31.45;100632.09;103271;1315;61230;-82
2022/09/19 11:00:44;;;;;;;;;;;;;;;23.89;31.33;100618.46;102915;1315;75762;-82
2022/09/19 11:03:30;;;;;;;;;;;;;;;23.89;31.28;100613.81;103552;1316;61242;-84
2022/09/19 11:06:12;;;;;;;;;;;;;;;23.89;31.21;100609.29;104016;1314;59291;-84
2022/09/19 11:08:48;;;;;;;;;;;;;;;23.89;31.25;100601.23;104532;1314;73745;-84
2022/09/19 11:11:19;;;;;;;;;;;;;;;23.82;31.03;100592.97;104460;1315;73737;-84
2022/09/19 11:13:45;;;;;;;;;;;;;;;23.77;30.91;100592.71;104619;1314;60179;-84
2022/09/19 11:16:21;;;;;;;;;;;;;;;23.77;30.89;100586.00;104629;1314;59424;-84
2022/09/19 11:19:18;;;;;;;;;;;;;;;23.82;30.95;100587.98;104603;1314;73076;-83
2022/09/19 11:21:56;;;;;;;;;;;;;;;23.74;30.64;100581.94;103809;1308;75733;-84
2022/09/19 11:24:25;;;;;;;;;;;;;;;23.66;30.43;100581.58;104527;1308;61334;-81
2022/09/19 11:26:51;;;;;;;;;;;;;;;23.66;30.39;100578.95;104504;1309;61125;-84
2022/09/19 11:29:32;;;;;;;;;;;;;;;23.66;30.28;100576.40;104541;1306;72909;-82
2022/09/19 11:32:07;;;;;;;;;;;;;;;23.67;30.22;100582.06;104471;1308;73443;-84
2022/09/19 11:34:42;;;;;;;;;;;;;;;23.69;30.06;100573.02;104533;1308;61104;-84
2022/09/19 11:37:25;;;;;;;;;;;;;;;23.68;29.99;100569.73;104345;1308;61329;-82
2022/09/19 11:39:52;;;;;;;;;;;;;;;23.69;29.96;100571.48;104513;1309;72944;-82
2022/09/19 11:42:27;;;;;;;;;;;;;;;23.72;30.05;100571.91;104313;1306;74580;-83
2022/09/19 11:45:01;;;;;;;;;;;;;;;23.77;30.03;100570.20;104339;1309;61409;-83
2022/09/19 11:47:28;;;;;;;;;;;;;;;23.81;30.02;100568.14;104452;1308;61818;-82
2022/09/19 11:50:16;;;;;;;;;;;;;;;23.84;30.01;100568.35;104305;1309;61374;-83
2022/09/19 11:52:42;;;;;;;;;;;;;;;23.83;29.70;100569.69;104419;1308;73862;-84
2022/09/19 11:55:14;;;;;;;;;;;;;;;23.78;29.69;100572.80;104210;1308;61285;-83
2022/09/19 11:57:45;;;;;;;;;;;;;;;23.77;29.67;100566.81;104443;1307;61215;-83
2022/09/19 12:00:12;;;;;;;;;;;;;;;23.75;29.60;100564.48;104311;1308;73909;-83
2022/09/19 12:02:47;;;;;;;;;;;;;;;23.76;29.69;100564.39;104003;1309;75695;-83
2022/09/19 12:05:36;;;;;;;;;;;;;;;23.76;29.64;100559.14;104338;1308;62067;-83
2022/09/19 12:08:15;;;;;;;;;;;;;;;23.77;29.70;100559.83;104244;1308;61607;-82
2022/09/19 12:10:49;;;;;;;;;;;;;;;23.81;29.63;100556.79;104324;1308;73342;-82
2022/09/19 12:13:19;;;;;;;;;;;;;;;23.84;29.61;100554.76;105516;1307;74706;-82
2022/09/19 12:15:46;;;;;;;;;;;;;;;23.83;29.32;100558.39;105509;1308;59550;-82
2022/09/19 12:18:18;;;;;;;;;;;;;;;23.81;29.29;100556.59;105383;1309;58886;-83
2022/09/19 12:20:45;;;;;;;;;;;;;;;23.82;29.38;100549.11;105366;1308;72991;-83
2022/09/19 12:26:16;;;;;;;;;;;;;;;23.88;29.41;100544.30;104365;1308;61202;-82
2022/09/19 12:28:47;;;;;;;;;;;;;;;23.90;29.48;100540.20;104525;1309;61260;-83
2022/09/19 12:31:13;;;;;;;;;;;;;;;23.94;29.51;100537.71;104533;1309;72911;-83
2022/09/19 12:33:49;;;;;;;;;;;;;;;23.97;29.62;100528.83;104377;1309;61453;-83
2022/09/19 12:36:19;;;;;;;;;;;;;;;24.01;29.58;100528.30;104450;1308;61290;-84
2022/09/19 12:38:50;;;;;;;;;;;;;;;24.04;29.71;100529.29;104606;1308;61325;-84
2022/09/19 12:41:35;;;;;;;;;;;;;;;24.07;29.72;100533.00;104567;1308;72832;-83
2022/09/19 12:44:13;;;;;;;;;;;;;;;24.10;29.93;100531.47;104681;1306;74778;-82
2022/09/19 12:46:45;;;;;;;;;;;;;;;24.13;29.93;100530.52;104533;1309;61164;-83
2022/09/19 12:49:22;;;;;;;;;;;;;;;24.14;30.10;100523.91;104471;1307;61411;-82
2022/09/19 12:52:00;;;;;;;;;;;;;;;24.17;30.09;100520.45;104290;1309;73386;-83
2022/09/19 12:54:44;;;;;;;;;;;;;;;24.19;30.13;100515.05;104459;1309;74894;-83